Weather observations for the past three days for
Aurora, Aurora Municipal Airport
Metric (Imperial)
Date Time (cdt) Wind (kph) Vis. (km) Weather Sky Cond. Temperature (ºC) Relative Humidity Wind Chill (°C) Heat Index (°C) Pressure Precipitation (cm)
Air Dwpt 6 hour altimeter (cm) sea level (mb) 1 hr 3 hr 6 hr
Max. Min.
07 19:55 N 11 16.09 Mostly Cloudy BKN120 21 -3.6 19% 75.67 0.0
07 19:35 N 13 16.09 Fair CLR 22 -4.3 17% 75.67 0.0
07 19:15 N 11 16.09 Fair CLR 22.1 -4.5 17% 75.67 0.0
07 18:55 N 13 16.09 Fair CLR 22.6 -5.1 23.6 19.9 15% 75.67 0.0
07 18:35 NW 11 16.09 Fair CLR 22.9 -6 14% 75.67 0.0
07 18:15 NW 6 16.09 Fair CLR 22.9 -6.2 14% 75.67 0.0
07 17:55 NW 22 16.09 Fair CLR 23.5 -6.1 13% 75.67 0.0
07 17:35 W 6 16.09 Fair CLR 22.9 -6.3 14% 75.67 0.0
07 17:15 W 17 16.09 Fair CLR 23.6 -5.8 14% 75.67 0.0
07 16:55 W 20 G 31 16.09 Fair CLR 23.4 -5.8 14% 75.69 0.0
07 16:35 NW 15 16.09 Fair CLR 22.9 -5.3 15% 75.69 0.0
07 16:15 SW 15 16.09 Fair CLR 22.6 -5.4 15% 75.72 0.0
07 15:55 NW 9 G 26 16.09 Fair CLR 22.7 -4.8 16% 75.74 0.0
07 15:35 NW 7 G 20 16.09 Fair CLR 22.3 -3.4 18% 75.74 0.0
07 15:15 W 15 G 31 16.09 Fair CLR 22.3 -4.2 17% 75.77 0.0
07 14:35 NW 19 G 31 16.09 Fair CLR 21.8 -5.2 16% 75.77 0.0
07 14:15 W 15 G 20 16.09 Fair CLR 21.5 -4.5 17% 75.77 0.0
07 13:55 NW 13 G 33 16.09 Fair CLR 20.7 -3.3 20% 75.79 0.0
07 13:35 NW 19 16.09 Fair CLR 20.8 -3.4 19% 75.79 0.0
07 13:15 W 11 16.09 Fair CLR 20.5 -2.7 21% 75.79 0.0
07 12:55 NW 13 16.09 Fair CLR 19.3 -2.1 19.3 6 24% 75.79 0.0
07 12:15 N 13 16.09 Fair CLR 19 -0.5 27% 75.82 0.0
07 11:55 NW 19 G 28 16.09 Fair CLR 18.6 0.1 29% 75.84 0.0
07 11:35 NW 17 16.09 Fair CLR 18 0.3 30% 75.84 0.0
07 11:15 W 15 G 26 16.09 Fair CLR 17 0.6 33% 75.84 0.0
07 10:55 NW 15 G 28 16.09 Fair CLR 16.3 1 36% 75.84 0.0
07 10:35 W 19 G 31 16.09 Fair CLR 15.5 1.4 39% 75.84 0.0
07 10:15 W 22 G 37 16.09 Fair CLR 14.8 1.7 41% 75.84 0.0
07 09:55 W 26 16.09 Fair CLR 14 2.1 45% 75.84 0.0
07 09:35 W 28 G 39 16.09 Fair CLR 13.4 2.4 48% 75.87 0.0
07 09:15 SW 28 G 39 16.09 Fair CLR 12.3 2.6 52% 75.84 0.0
07 08:55 SW 28 G 37 16.09 Fair CLR 11.6 2.6 54% 75.84 0.0
07 08:15 SW 26 16.09 Fair CLR 9.2 2.9 65% 6 75.9 0.0
07 07:55 SW 22 16.09 Fair CLR 8 3.1 71% 5 75.92 0.0
07 07:35 SW 19 16.09 Fair CLR 7 2.9 75% 4 75.92 0.0
07 07:15 SW 17 16.09 Fair CLR 6.3 2.7 78% 3 75.92 0.0
07 06:55 SW 19 16.09 Fair CLR 5.9 2.5 8.2 5.5 79% 3 75.92 0.0
07 06:35 SW 19 16.09 Fair CLR 5.5 2.5 81% 2 75.95 0.0
07 05:55 SW 20 16.09 Fair CLR 5.9 2.6 80% 3 75.97 0.0
07 05:35 SW 19 16.09 Fair CLR 6.1 2.8 80% 3 75.97 0.0
07 05:15 SW 20 16.09 Fair CLR 6.3 3 80% 3 76 0.0
07 04:55 SW 26 16.09 Fair CLR 6.7 3 78% 3 76 0.0
07 04:35 SW 24 16.09 Fair CLR 6.8 3 77% 3 76 0.0
07 04:15 SW 22 16.09 Fair CLR 6.7 3 78% 3 76 0.0
07 03:55 SW 22 16.09 Fair CLR 6.9 2.9 76% 4 76 0.0
07 03:35 SW 22 16.09 Fair CLR 7 3 76% 4 76.02 0.0
07 03:15 SW 22 16.09 Fair CLR 7.1 2.8 74% 4 76.05 0.0
07 02:55 SW 24 16.09 Fair CLR 7.3 2.6 72% 4 76.07 0.0
07 02:35 SW 24 16.09 Fair CLR 7.5 2.5 71% 4 76.1 0.0
07 02:15 SW 24 16.09 Fair CLR 7.7 2.5 70% 4 76.12 0.0
07 01:55 SW 22 16.09 Fair CLR 8 2.7 70% 5 76.15 0.0
07 01:35 SW 24 16.09 Fair CLR 8.2 2.5 68% 5 76.15 0.0
07 01:15 SW 24 16.09 Fair CLR 8.1 2.1 66% 5 76.17 0.0
07 00:55 SW 22 G 30 16.09 Fair CLR 8 1.5 16.1 8 64% 5 76.17 0.0
07 00:35 SW 22 16.09 Fair CLR 8.1 1.1 62% 5 76.17 0.0
07 00:15 SW 22 16.09 Fair CLR 8.5 0.9 59% 6 76.17 0.0
06 23:35 SW 20 16.09 Fair CLR 9 1.1 58% 6 76.2 0.0
06 23:15 SW 24 16.09 Fair CLR 9.4 1.2 57% 7 76.2 0.0
06 22:55 SW 22 16.09 Fair CLR 10 1.1 54% 7 76.23 0.0
06 22:35 SW 24 G 31 16.09 Fair CLR 10.2 1.3 54% 76.23 0.0
06 22:15 SW 20 G 28 16.09 Fair CLR 10.5 1 52% 76.23 0.0
06 21:55 SW 20 16.09 Fair CLR 10.8 0.5 49% 76.23 0.0
06 21:35 SW 20 G 30 16.09 Fair CLR 11.5 0 45% 76.23 0.0
06 20:55 SW 17 16.09 Partly Cloudy SCT090 12.1 -1.2 40% 76.2 0.0
06 20:35 SW 20 16.09 Partly Cloudy SCT090 13 -1.5 37% 76.2 0.0
06 20:15 W 17 16.09 Mostly Cloudy BKN090 13.9 -4.1 29% 76.2 0.0
06 19:55 SW 20 G 28 16.09 Mostly Cloudy BKN090 14.4 -4.7 27% 76.2 0.0
06 19:35 W 11 16.09 Mostly Cloudy BKN100 14.3 -5.8 25% 76.2 0.0
06 19:15 W 22 G 28 16.09 Overcast OVC090 15.9 -5.5 23% 76.2 0.0
06 18:55 W 17 16.09 Overcast OVC090 15.4 -6.1 16.6 12.6 22% 76.23 0.0
06 18:35 W 13 16.09 Mostly Cloudy BKN090 15 -6.9 22% 76.23 0.0
06 18:15 NW 17 G 28 16.09 Partly Cloudy SCT090 16.1 -6.5 21% 76.23 0.0
06 17:55 W 17 G 28 16.09 Partly Cloudy SCT090 15.9 -6.9 20% 76.23 0.0
06 17:35 W 28 16.09 Overcast OVC080 16.2 -6.8 20% 76.25 0.0
06 17:15 W 20 G 35 16.09 Overcast OVC080 16.1 -7.1 20% 76.25 0.0
06 16:55 W 15 16.09 Overcast OVC090 16.1 -6 22% 76.28 0.0
06 16:35 W 17 16.09 Mostly Cloudy BKN090 16.2 -6.2 21% 76.28 0.0
06 16:15 W 24 16.09 Mostly Cloudy BKN090 15.1 -6.3 22% 76.33 0.0
06 15:55 W 17 G 28 16.09 Partly Cloudy SCT090 15.7 -6.7 21% 76.33 0.0
06 15:35 W 17 G 33 16.09 Overcast SCT080 OVC090 15.3 -6.4 22% 76.35 0.0
06 15:15 W 22 G 30 16.09 Mostly Cloudy SCT080 BKN090 14.6 -6 24% 76.38 0.0
06 14:55 NW 20 G 33 16.09 Mostly Cloudy SCT080 BKN090 14.6 -6.2 23% 76.4 0.0
06 14:35 W 11 16.09 Overcast OVC085 13.8 -5.9 25% 76.4 0.0
06 14:15 W 19 16.09 Overcast OVC085 14.4 -6.2 24% 76.4 0.0
06 13:55 NW 17 16.09 Overcast SCT075 OVC085 13.2 -6.4 25% 76.43 0.0
06 13:35 W 15 G 35 16.09 Overcast BKN080 OVC090 13.7 -6.5 24% 76.45 0.0
06 13:15 NW 9 G 31 16.09 Mostly Cloudy SCT075 BKN080 12.8 -6.2 26% 76.45 0.0
06 12:55 NW 22 G 31 16.09 Mostly Cloudy BKN075 12.6 -6.5 13.8 5.4 26% 76.48 0.0
06 12:35 N 7 16.09 Mostly Cloudy BKN075 13.8 -6 25% 76.48 0.0
06 12:15 NW 6 16.09 Mostly Cloudy BKN085 12.1 -7.2 25% 76.48 0.0
06 11:55 NW 15 16.09 Overcast SCT070 OVC085 12.2 -7 26% 76.48 0.0
06 11:35 N 19 G 30 16.09 Mostly Cloudy BKN070 12.2 -6.8 26% 76.5 0.0
06 11:15 N 15 G 30 16.09 Mostly Cloudy SCT070 BKN085 12 -6.7 27% 76.5 0.0
06 10:55 N 11 16.09 Mostly Cloudy SCT070 BKN085 12.4 -5.9 28% 76.5 0.0
06 10:35 N 9 16.09 Partly Cloudy SCT085 11 -6.6 29% 76.5 0.0
06 10:15 NW 11 16.09 Partly Cloudy SCT095 10.9 -6.4 29% 76.5 0.0
06 09:55 NW 6 16.09 Partly Cloudy SCT080 SCT095 11 -5.8 31% 76.5 0.0
06 09:35 NW 6 16.09 Fair CLR 10.2 -5.3 33% 76.48 0.0
06 09:15 W 6 16.09 Fair CLR 9.6 -4.8 36% 76.48 0.0
06 08:55 Calm 16.09 Fair CLR 8.8 -4.8 38% 76.48 0.0
06 08:35 Calm 16.09 Partly Cloudy SCT100 8.5 -4.5 40% 76.48 0.0
06 08:15 NW 6 16.09 Partly Cloudy SCT100 8 -4.3 42% 76.45 0.0
06 07:55 NW 7 16.09 Partly Cloudy SCT095 7.2 -2.7 50% 6 76.45 0.0
06 07:35 N 7 16.09 Mostly Cloudy BKN095 6.6 -1.9 55% 5 76.43 0.0
06 07:15 NW 7 16.09 Overcast SCT075 OVC095 5.8 -1.5 60% 5 76.4 0.0
06 06:55 NW 6 16.09 Overcast BKN075 OVC095 5.1 -1.7 7.4 4.7 62% 76.38 0.0
06 06:35 NW 7 16.09 Overcast OVC075 4.8 -1.7 63% 3 76.38 0.0
06 06:15 Calm 16.09 Overcast OVC075 5 -1.8 62% 76.35 0.0
06 05:55 Calm 16.09 Overcast OVC075 5.4 -1.3 62% 76.35 0.0
06 05:35 N 6 16.09 Overcast OVC075 5.9 -2.1 57% 76.35 0.0
06 05:15 N 6 16.09 Overcast OVC075 6 -2.2 56% 76.35 0.0
06 04:55 Calm 16.09 Overcast OVC075 5.9 -2.1 57% 76.33 0.0
06 04:35 NW 6 16.09 Overcast OVC075 5.8 -2.1 57% 76.33 0.0
06 04:15 N 6 16.09 Overcast OVC075 5.7 -2.3 57% 76.33 0.0
06 03:55 N 7 16.09 Overcast OVC075 5.4 -2.1 59% 4 76.33 0.0
06 03:35 NW 9 16.09 Overcast OVC075 4.8 -2.5 60% 3 76.3 0.0
06 03:15 N 6 16.09 Overcast OVC075 5.4 -2.9 55% 76.28 0.0
06 02:55 N 6 16.09 Overcast OVC075 5.7 -2.4 56% 76.28 0.0
06 02:35 N 6 16.09 Mostly Cloudy BKN075 6.1 -2.6 54% 76.28 0.0
06 02:15 N 6 16.09 Fair CLR 6.5 -2.9 51% 76.28 0.0
06 01:55 N 6 16.09 Fair CLR 7.2 -3.5 47% 76.25 0.0
06 01:35 N 7 16.09 Fair CLR 7.1 -3.2 48% 6 76.25 0.0
06 01:15 N 7 16.09 Fair CLR 7.2 -3 49% 6 76.23 0.0
06 00:55 N 9 16.09 Partly Cloudy SCT120 7.5 -2.9 13 7.5 48% 6 76.23 0.0
06 00:35 N 7 16.09 Mostly Cloudy BKN120 7.7 -3.1 47% 7 76.23 0.0
06 00:15 N 9 16.09 Mostly Cloudy BKN120 8 -3 46% 7 76.2 0.0
05 23:55 N 9 16.09 Mostly Cloudy BKN120 8.5 -3.5 43% 7 76.2 0.0
05 23:35 N 9 16.09 Mostly Cloudy BKN120 8.7 -4 41% 7 76.2 0.0
05 23:15 N 9 16.09 Mostly Cloudy BKN120 9 -4 40% 8 76.2 0.0
05 22:55 N 11 16.09 Mostly Cloudy BKN110 9.3 -4 39% 8 76.2 0.0
05 22:35 N 9 16.09 Overcast OVC120 9.2 -3.6 41% 8 76.17 0.0
05 22:15 N 9 16.09 Mostly Cloudy BKN120 9.7 -4 38% 9 76.17 0.0
05 21:55 N 9 16.09 Overcast OVC120 9.8 -3.9 38% 9 76.12 0.0
05 21:35 NE 9 16.09 Mostly Cloudy BKN120 10.1 -4.1 37% 76.12 0.0
05 21:15 N 9 16.09 Mostly Cloudy BKN120 10.5 -4.5 35% 76.1 0.0
05 20:55 N 13 16.09 Overcast OVC110 10.7 -4.2 35% 76.07 0.0
05 20:35 N 15 16.09 Overcast OVC110 11.2 -4.7 33% 76.05 0.0
05 20:15 N 15 16.09 Overcast OVC100 11.5 -4.5 33% 76.02 0.0
05 19:55 N 20 16.09 Overcast OVC100 12 -4.6 31% 76.02 0.0
05 19:35 N 22 16.09 Overcast OVC100 12.3 -5 30% 76 0.0
05 19:15 N 22 16.09 Mostly Cloudy BKN110 12.6 -4.5 30% 76 0.0
05 18:55 N 22 16.09 Partly Cloudy SCT110 13 -4.1 14 11.6 30% 75.97 0.0
05 18:35 N 17 16.09 Overcast SCT070 OVC110 13.4 -3.3 31% 75.97 0.0
05 18:15 N 20 16.09 Mostly Cloudy BKN110 13.5 -3.5 31% 75.97 0.0
05 17:55 N 19 16.09 Mostly Cloudy SCT070 SCT080 BKN110 13.6 -3.3 31% 75.97 0.0
05 17:35 N 22 16.09 Mostly Cloudy SCT070 BKN080 13.9 -3.2 31% 75.95 0.0
05 17:15 N 11 16.09 Overcast BKN070 OVC080 13.5 -2.7 33% 75.97 0.0
05 16:55 NW 11 16.09 Overcast OVC070 13.2 -2.5 34% 75.97 0.0
05 16:35 NW 17 G 26 16.09 Mostly Cloudy SCT070 BKN085 13.3 -2 35% 76 0.0
05 16:15 NW 17 16.09 Mostly Cloudy SCT070 BKN085 13.6 -1.4 36% 76 0.0
05 15:55 N 9 G 17 16.09 Overcast OVC070 13 -1.4 37% 76.02 0.0
05 15:35 NW 17 16.09 Overcast SCT055 OVC075 13.2 -1.3 37% 76.05 0.0
05 15:15 N 15 G 28 16.09 Overcast SCT055 OVC065 13.2 -1.5 36% 76.05 0.0
05 14:55 N 19 16.09 Mostly Cloudy BKN065 BKN070 13.1 -1.2 37% 76.07 0.0
05 14:35 NW 11 16.09 Overcast SCT055 OVC065 13.1 -1.5 37% 76.07 0.0
05 14:15 NW 22 16.09 Mostly Cloudy BKN065 13.3 -1.9 35% 76.1 0.0
05 13:55 NW 15 G 26 16.09 Partly Cloudy SCT060 SCT070 13.3 -1.4 36% 76.07 0.0
05 13:35 N 11 G 26 16.09 Partly Cloudy SCT046 12.7 -0.3 41% 76.1 0.0
05 13:15 N 13 16.09 Fair CLR 12.2 0.4 45% 76.12 0.0
05 12:55 N 6 16.09 Partly Cloudy SCT080 11 0.1 11.2 8.6 47% 76.12 0.0
05 12:35 N 11 16.09 Overcast SCT060 BKN070 OVC080 10.3 0.8 52% 76.15 0.0
05 12:15 N 15 G 26 16.09 Mostly Cloudy SCT042 SCT048 BKN060 10.2 1.3 54% 76.17 0.0
05 11:55 NW 20 16.09 Overcast OVC050 10 1.2 55% 8 76.17 0.0
05 11:35 N 19 G 28 16.09 Light Drizzle OVC050 9.2 1.5 59% 7 76.17 0.0
05 11:15 N 22 G 31 16.09 Light Rain SCT039 BKN050 OVC060 10.3 -0.3 48% 76.15 0.0
05 10:55 N 26 G 33 16.09 Overcast SCT050 OVC060 10.5 -0.3 47% 76.15 0.0
05 10:35 N 20 16.09 Overcast OVC070 10.6 -0.9 45% 76.12 0.0
05 10:15 NE 19 16.09 Overcast BKN070 OVC095 10.5 -2.1 42% 76.1 0.0
05 09:55 N 19 16.09 Overcast SCT070 OVC095 10.6 -1.5 43% 76.1 0.0
05 09:35 NE 17 16.09 Overcast SCT070 OVC095 10.5 -1.2 44% 76.07 0.0
05 09:15 NE 13 16.09 Overcast SCT065 OVC095 10 0.1 51% 8 76.05 0.0
05 08:55 NE 11 16.09 Overcast BKN060 BKN075 OVC095 9.5 1.2 57% 8 76.02 0.0
05 08:15 NE 7 16.09 Overcast OVC095 9 3.9 71% 8 76.02 0.0
05 07:55 NE 6 16.09 Overcast OVC095 8.9 4.6 75% 76 0.0
05 07:35 NE 6 16.09 Overcast OVC095 8.7 4.3 74% 75.97 0.0
05 07:15 NE 9 16.09 Overcast OVC095 8.6 4.6 76% 7 75.95 0.0
05 06:55 NE 11 16.09 Overcast OVC095 8.6 4.6 10 8.6 76% 7 75.92 0.0
05 06:35 NE 13 16.09 Overcast OVC095 8.6 4 73% 7 75.9 0.0
05 06:15 NE 17 16.09 Overcast OVC095 9 3.7 70% 7 75.84 0.0
05 05:55 N 15 16.09 Overcast OVC095 9.2 4.5 73% 7 75.84 0.0
05 05:35 N 17 16.09 Overcast SCT080 OVC095 9.6 4.2 69% 7 75.79 0.0
05 04:55 N 9 16.09 Overcast SCT070 BKN090 OVC110 9.7 6.6 81% 9 75.79 0.0
05 04:35 N 6 16.09 Overcast SCT080 OVC090 9.8 6.7 81% 75.79 0.0
05 04:15 Calm 16.09 Overcast OVC090 9.8 7 83% 75.79 0.0
05 03:55 Calm 16.09 Overcast OVC090 9.8 5.5 75% 75.79 0.0
05 03:35 Calm 16.09 Overcast OVC090 9.7 6 78% 75.82 0.0
05 03:15 Calm 16.09 Overcast OVC100 9 6.8 86% 75.79 0.0
05 02:55 Calm 16.09 Overcast OVC100 9.7 6.7 82% 75.79 0.0
05 02:35 Calm 16.09 Overcast OVC100 9.5 6.9 84% 75.77 0.0
05 02:15 Calm 16.09 Overcast OVC100 9.6 6.9 83% 75.79 0.0
05 01:55 Calm 16.09 Overcast OVC090 9.6 6.9 83% 75.79 0.0
05 01:35 Calm 16.09 Light Drizzle SCT065 OVC080 9.7 6.5 81% 75.79 0.0
05 01:15 Calm 16.09 Light Drizzle SCT065 OVC080 9.8 6.2 79% 75.79 0.0
05 00:55 Calm 16.09 Overcast OVC080 9.8 6.3 21 9.6 79% 75.77 0.0
05 00:35 NE 6 16.09 Overcast BKN090 OVC120 9.7 6 78% 75.74 0.0
05 00:15 NE 15 16.09 Overcast OVC090 10 5.7 75% 8 75.72 0.0
04 23:55 NE 13 16.09 Light Rain SCT080 OVC100 10.2 4.9 70% 75.74 0.0
04 23:35 NE 20 16.09 Light Rain OVC100 11.6 2.2 53% 75.74 0.0
04 23:15 NE 26 16.09 Overcast OVC100 12 1.5 49% 75.74 0.0
04 22:55 N 26 16.09 Overcast OVC110 12.5 0.6 44% 75.84 0.0
04 22:35 N 30 G 37 16.09 Overcast OVC110 13.5 -0.2 39% 75.79 0.0
04 22:15 N 30 G 39 16.09 Mostly Cloudy BKN110 13.6 -0.2 39% 75.74 0.0
04 21:55 N 33 16.09 Mostly Cloudy and Breezy BKN120 14 0 39% 75.69 0.0
04 21:35 N 35 16.09 Partly Cloudy and Breezy SCT120 14.3 0 38% 75.67 0.0
04 21:15 N 31 G 41 16.09 Partly Cloudy SCT120 14.6 0.1 37% 75.64 0.0
04 20:55 N 35 G 46 16.09 Partly Cloudy and Breezy SCT120 14.9 0.6 38% 75.59 0.0
04 20:35 N 37 G 52 16.09 Fair and Breezy CLR 15.2 0.6 37% 75.57 0.0
04 20:15 N 44 G 56 16.09 Fair and Windy CLR 16.7 0.3 33% 75.51 0.0
Date Time (cdt) Wind (kph) Vis. (km) Weather Sky Cond. Air Dwpt Max. Min. Relative Humidity Wind Chill (°C) Heat Index (°C) altimeter (cm) sea level (mb) 1 hr 3 hr 6 hr
6 hour
Temperature (ºC) Pressure Precipitation (cm)